sensor_id;sensor_type;location;lat;lon;timestamp;temperature;humidity
74513;DHT22;62992;52.052;8.550;2022-12-10T00:01:19;-1.20;99.90
74513;DHT22;62992;52.052;8.550;2022-12-10T00:04:04;-1.20;99.90
74513;DHT22;62992;52.052;8.550;2022-12-10T00:06:48;-1.10;99.90
74513;DHT22;62992;52.052;8.550;2022-12-10T00:09:32;-1.10;99.90
74513;DHT22;62992;52.052;8.550;2022-12-10T00:12:16;-1.10;99.90
74513;DHT22;62992;52.052;8.550;2022-12-10T00:15:00;-1.00;99.90
74513;DHT22;62992;52.052;8.550;2022-12-10T00:17:44;-0.90;99.90
74513;DHT22;62992;52.052;8.550;2022-12-10T00:20:28;-0.90;99.90
74513;DHT22;62992;52.052;8.550;2022-12-10T00:23:12;-1.00;99.90
74513;DHT22;62992;52.052;8.550;2022-12-10T00:26:18;-0.90;99.90
74513;DHT22;62992;52.052;8.550;2022-12-10T00:29:06;-1.00;99.90
74513;DHT22;62992;52.052;8.550;2022-12-10T00:31:50;-1.00;99.90
74513;DHT22;62992;52.052;8.550;2022-12-10T00:34:34;-1.00;99.90
74513;DHT22;62992;52.052;8.550;2022-12-10T00:37:18;-1.00;99.90
74513;DHT22;62992;52.052;8.550;2022-12-10T00:40:03;-1.00;99.90
74513;DHT22;62992;52.052;8.550;2022-12-10T00:42:47;-1.00;99.90
74513;DHT22;62992;52.052;8.550;2022-12-10T00:45:31;-1.00;99.90
74513;DHT22;62992;52.052;8.550;2022-12-10T00:48:15;-0.90;99.90
74513;DHT22;62992;52.052;8.550;2022-12-10T00:51:00;-0.90;99.90
74513;DHT22;62992;52.052;8.550;2022-12-10T00:53:46;-1.00;99.90
74513;DHT22;62992;52.052;8.550;2022-12-10T00:56:32;-1.00;99.90
74513;DHT22;62992;52.052;8.550;2022-12-10T00:59:17;-0.90;99.90
74513;DHT22;62992;52.052;8.550;2022-12-10T01:02:01;-0.90;99.90
74513;DHT22;62992;52.052;8.550;2022-12-10T01:04:45;-0.90;99.90
74513;DHT22;62992;52.052;8.550;2022-12-10T01:07:29;-0.80;99.90
74513;DHT22;62992;52.052;8.550;2022-12-10T01:10:13;-0.80;99.90
74513;DHT22;62992;52.052;8.550;2022-12-10T01:12:57;-0.80;99.90
74513;DHT22;62992;52.052;8.550;2022-12-10T01:15:41;-0.80;99.90
74513;DHT22;62992;52.052;8.550;2022-12-10T01:18:25;-0.80;99.90
74513;DHT22;62992;52.052;8.550;2022-12-10T01:21:12;-0.80;99.90
74513;DHT22;62992;52.052;8.550;2022-12-10T01:23:57;-0.70;99.90
74513;DHT22;62992;52.052;8.550;2022-12-10T01:26:42;-0.70;99.90
74513;DHT22;62992;52.052;8.550;2022-12-10T01:29:26;-0.80;99.90
74513;DHT22;62992;52.052;8.550;2022-12-10T01:32:11;-0.80;99.90
74513;DHT22;62992;52.052;8.550;2022-12-10T01:34:55;-0.70;99.90
74513;DHT22;62992;52.052;8.550;2022-12-10T01:37:39;-0.70;99.90
74513;DHT22;62992;52.052;8.550;2022-12-10T01:40:24;-0.70;99.90
74513;DHT22;62992;52.052;8.550;2022-12-10T01:43:14;-0.70;99.90
74513;DHT22;62992;52.052;8.550;2022-12-10T01:45:58;-0.70;99.90
74513;DHT22;62992;52.052;8.550;2022-12-10T01:48:42;-0.70;99.90
74513;DHT22;62992;52.052;8.550;2022-12-10T01:51:30;-0.70;99.90
74513;DHT22;62992;52.052;8.550;2022-12-10T01:54:30;-0.60;99.90
74513;DHT22;62992;52.052;8.550;2022-12-10T01:57:22;-0.60;99.90
74513;DHT22;62992;52.052;8.550;2022-12-10T02:00:08;-0.60;99.90
74513;DHT22;62992;52.052;8.550;2022-12-10T02:02:59;-0.60;99.90
74513;DHT22;62992;52.052;8.550;2022-12-10T02:05:51;-0.60;99.90
74513;DHT22;62992;52.052;8.550;2022-12-10T02:08:44;-0.60;99.90
74513;DHT22;62992;52.052;8.550;2022-12-10T02:11:47;-0.70;99.90
74513;DHT22;62992;52.052;8.550;2022-12-10T02:17:37;-0.70;99.90
74513;DHT22;62992;52.052;8.550;2022-12-10T02:20:34;-0.70;99.90
74513;DHT22;62992;52.052;8.550;2022-12-10T02:23:41;-0.70;99.90
74513;DHT22;62992;52.052;8.550;2022-12-10T02:26:40;-0.70;99.90
74513;DHT22;62992;52.052;8.550;2022-12-10T02:29:28;-0.60;99.90
74513;DHT22;62992;52.052;8.550;2022-12-10T02:32:24;-0.60;99.90
74513;DHT22;62992;52.052;8.550;2022-12-10T02:35:19;-0.60;99.90
74513;DHT22;62992;52.052;8.550;2022-12-10T02:38:15;-0.60;99.90
74513;DHT22;62992;52.052;8.550;2022-12-10T02:41:06;-0.50;99.90
74513;DHT22;62992;52.052;8.550;2022-12-10T02:43:52;-0.50;99.90
74513;DHT22;62992;52.052;8.550;2022-12-10T02:46:38;-0.50;99.90
74513;DHT22;62992;52.052;8.550;2022-12-10T02:49:24;-0.50;99.90
74513;DHT22;62992;52.052;8.550;2022-12-10T02:52:13;-0.50;99.90
74513;DHT22;62992;52.052;8.550;2022-12-10T02:54:57;-0.50;99.90
74513;DHT22;62992;52.052;8.550;2022-12-10T02:58:17;-0.50;99.90
74513;DHT22;62992;52.052;8.550;2022-12-10T03:01:20;-0.50;99.90
74513;DHT22;62992;52.052;8.550;2022-12-10T03:07:02;-0.40;99.90
74513;DHT22;62992;52.052;8.550;2022-12-10T03:09:58;-0.50;99.90
74513;DHT22;62992;52.052;8.550;2022-12-10T03:12:49;-0.50;99.90
74513;DHT22;62992;52.052;8.550;2022-12-10T03:15:38;-0.40;99.90
74513;DHT22;62992;52.052;8.550;2022-12-10T03:18:24;-0.50;99.90
74513;DHT22;62992;52.052;8.550;2022-12-10T03:21:09;-0.50;99.90
74513;DHT22;62992;52.052;8.550;2022-12-10T03:23:54;-0.50;99.90
74513;DHT22;62992;52.052;8.550;2022-12-10T03:26:39;-0.50;99.90
74513;DHT22;62992;52.052;8.550;2022-12-10T03:29:30;-0.40;99.90
74513;DHT22;62992;52.052;8.550;2022-12-10T03:32:18;-0.50;99.90
74513;DHT22;62992;52.052;8.550;2022-12-10T03:35:04;-0.50;99.90
74513;DHT22;62992;52.052;8.550;2022-12-10T03:37:50;-0.50;99.90
74513;DHT22;62992;52.052;8.550;2022-12-10T03:40:35;-0.40;99.90
74513;DHT22;62992;52.052;8.550;2022-12-10T03:43:21;-0.40;99.90
74513;DHT22;62992;52.052;8.550;2022-12-10T03:46:05;-0.40;99.90
74513;DHT22;62992;52.052;8.550;2022-12-10T03:48:50;-0.40;99.90
74513;DHT22;62992;52.052;8.550;2022-12-10T03:51:34;-0.40;99.90
74513;DHT22;62992;52.052;8.550;2022-12-10T03:54:19;-0.40;99.90
74513;DHT22;62992;52.052;8.550;2022-12-10T03:57:03;-0.40;99.90
74513;DHT22;62992;52.052;8.550;2022-12-10T03:59:47;-0.30;99.90
74513;DHT22;62992;52.052;8.550;2022-12-10T04:02:31;-0.30;99.90
74513;DHT22;62992;52.052;8.550;2022-12-10T04:05:15;-0.30;99.90
74513;DHT22;62992;52.052;8.550;2022-12-10T04:08:00;-0.30;99.90
74513;DHT22;62992;52.052;8.550;2022-12-10T04:10:44;-0.40;99.90
74513;DHT22;62992;52.052;8.550;2022-12-10T04:13:28;-0.40;99.90
74513;DHT22;62992;52.052;8.550;2022-12-10T04:16:33;-0.40;99.90
74513;DHT22;62992;52.052;8.550;2022-12-10T04:19:18;-0.30;99.90
74513;DHT22;62992;52.052;8.550;2022-12-10T04:22:03;-0.30;99.90
74513;DHT22;62992;52.052;8.550;2022-12-10T04:25:09;-0.30;99.90
74513;DHT22;62992;52.052;8.550;2022-12-10T04:28:12;-0.30;99.90
74513;DHT22;62992;52.052;8.550;2022-12-10T04:30:57;-0.30;99.90
74513;DHT22;62992;52.052;8.550;2022-12-10T04:33:41;-0.30;99.90
74513;DHT22;62992;52.052;8.550;2022-12-10T04:36:25;-0.30;99.90
74513;DHT22;62992;52.052;8.550;2022-12-10T04:39:09;-0.30;99.90
74513;DHT22;62992;52.052;8.550;2022-12-10T04:41:55;-0.30;99.90
74513;DHT22;62992;52.052;8.550;2022-12-10T04:44:39;-0.30;99.90
74513;DHT22;62992;52.052;8.550;2022-12-10T04:47:23;-0.30;99.90
74513;DHT22;62992;52.052;8.550;2022-12-10T04:50:08;-0.30;99.90
74513;DHT22;62992;52.052;8.550;2022-12-10T04:52:52;-0.20;99.90
74513;DHT22;62992;52.052;8.550;2022-12-10T04:55:36;-0.20;99.90
74513;DHT22;62992;52.052;8.550;2022-12-10T04:58:21;-0.30;99.90
74513;DHT22;62992;52.052;8.550;2022-12-10T05:01:07;-0.20;99.90
74513;DHT22;62992;52.052;8.550;2022-12-10T05:03:52;-0.30;99.90
74513;DHT22;62992;52.052;8.550;2022-12-10T05:06:37;-0.30;99.90
74513;DHT22;62992;52.052;8.550;2022-12-10T05:09:21;-0.30;99.90
74513;DHT22;62992;52.052;8.550;2022-12-10T05:12:07;-0.20;99.90
74513;DHT22;62992;52.052;8.550;2022-12-10T05:14:51;-0.30;99.90
74513;DHT22;62992;52.052;8.550;2022-12-10T05:17:35;-0.30;99.90
74513;DHT22;62992;52.052;8.550;2022-12-10T05:20:19;-0.20;99.90
74513;DHT22;62992;52.052;8.550;2022-12-10T05:23:03;-0.20;99.90
74513;DHT22;62992;52.052;8.550;2022-12-10T05:26:11;-0.20;99.90
74513;DHT22;62992;52.052;8.550;2022-12-10T05:28:56;-0.30;99.90
74513;DHT22;62992;52.052;8.550;2022-12-10T05:31:40;-0.30;99.90
74513;DHT22;62992;52.052;8.550;2022-12-10T05:34:24;-0.20;99.90
74513;DHT22;62992;52.052;8.550;2022-12-10T05:37:08;-0.20;99.90
74513;DHT22;62992;52.052;8.550;2022-12-10T05:39:53;-0.20;99.90
74513;DHT22;62992;52.052;8.550;2022-12-10T05:42:37;-0.20;99.90
74513;DHT22;62992;52.052;8.550;2022-12-10T05:45:21;-0.20;99.90
74513;DHT22;62992;52.052;8.550;2022-12-10T05:48:05;-0.20;99.90
74513;DHT22;62992;52.052;8.550;2022-12-10T05:50:50;-0.20;99.90
74513;DHT22;62992;52.052;8.550;2022-12-10T05:53:34;-0.20;99.90
74513;DHT22;62992;52.052;8.550;2022-12-10T05:56:20;-0.20;99.90
74513;DHT22;62992;52.052;8.550;2022-12-10T05:59:05;-0.20;99.90
74513;DHT22;62992;52.052;8.550;2022-12-10T06:01:49;-0.20;99.90
74513;DHT22;62992;52.052;8.550;2022-12-10T06:04:33;-0.20;99.90
74513;DHT22;62992;52.052;8.550;2022-12-10T06:07:18;-0.20;99.90
74513;DHT22;62992;52.052;8.550;2022-12-10T06:10:02;-0.20;99.90
74513;DHT22;62992;52.052;8.550;2022-12-10T06:12:46;-0.20;99.90
74513;DHT22;62992;52.052;8.550;2022-12-10T06:15:31;-0.20;99.90
74513;DHT22;62992;52.052;8.550;2022-12-10T06:18:16;-0.20;99.90
74513;DHT22;62992;52.052;8.550;2022-12-10T06:21:04;-0.10;99.90
74513;DHT22;62992;52.052;8.550;2022-12-10T06:23:50;-0.20;99.90
74513;DHT22;62992;52.052;8.550;2022-12-10T06:26:35;-0.20;99.90
74513;DHT22;62992;52.052;8.550;2022-12-10T06:29:19;-0.20;99.90
74513;DHT22;62992;52.052;8.550;2022-12-10T06:32:03;-0.10;99.90
74513;DHT22;62992;52.052;8.550;2022-12-10T06:34:48;-0.10;99.90
74513;DHT22;62992;52.052;8.550;2022-12-10T06:37:32;-0.10;99.90
74513;DHT22;62992;52.052;8.550;2022-12-10T06:40:16;-0.10;99.90
74513;DHT22;62992;52.052;8.550;2022-12-10T06:43:00;-0.10;99.90
74513;DHT22;62992;52.052;8.550;2022-12-10T06:45:44;-0.10;99.90
74513;DHT22;62992;52.052;8.550;2022-12-10T06:48:28;-0.20;99.90
74513;DHT22;62992;52.052;8.550;2022-12-10T06:51:13;-0.20;99.90
74513;DHT22;62992;52.052;8.550;2022-12-10T06:53:57;-0.10;99.90
74513;DHT22;62992;52.052;8.550;2022-12-10T06:56:41;-0.10;99.90
74513;DHT22;62992;52.052;8.550;2022-12-10T06:59:25;-0.10;99.90
74513;DHT22;62992;52.052;8.550;2022-12-10T07:02:09;-0.10;99.90
74513;DHT22;62992;52.052;8.550;2022-12-10T07:04:53;-0.10;99.90
74513;DHT22;62992;52.052;8.550;2022-12-10T07:07:40;0.00;99.90
74513;DHT22;62992;52.052;8.550;2022-12-10T07:10:24;-0.10;99.90
74513;DHT22;62992;52.052;8.550;2022-12-10T07:13:08;-0.10;99.90
74513;DHT22;62992;52.052;8.550;2022-12-10T07:15:52;-0.10;99.90
74513;DHT22;62992;52.052;8.550;2022-12-10T07:18:36;-0.20;99.90
74513;DHT22;62992;52.052;8.550;2022-12-10T07:21:23;-0.10;99.90
74513;DHT22;62992;52.052;8.550;2022-12-10T07:24:14;-0.10;99.90
74513;DHT22;62992;52.052;8.550;2022-12-10T07:26:59;-0.10;99.90
74513;DHT22;62992;52.052;8.550;2022-12-10T07:29:44;0.00;99.90
74513;DHT22;62992;52.052;8.550;2022-12-10T07:32:28;0.00;99.90
74513;DHT22;62992;52.052;8.550;2022-12-10T07:35:12;0.00;99.90
74513;DHT22;62992;52.052;8.550;2022-12-10T07:37:57;-0.10;99.90
74513;DHT22;62992;52.052;8.550;2022-12-10T07:40:41;-0.10;99.90
74513;DHT22;62992;52.052;8.550;2022-12-10T07:43:25;-0.10;99.90
74513;DHT22;62992;52.052;8.550;2022-12-10T07:46:21;0.00;99.90
74513;DHT22;62992;52.052;8.550;2022-12-10T07:49:06;0.00;99.90
74513;DHT22;62992;52.052;8.550;2022-12-10T07:51:51;0.00;99.90
74513;DHT22;62992;52.052;8.550;2022-12-10T07:54:35;0.00;99.90
74513;DHT22;62992;52.052;8.550;2022-12-10T07:57:19;0.00;99.90
74513;DHT22;62992;52.052;8.550;2022-12-10T08:00:04;-0.10;99.90
74513;DHT22;62992;52.052;8.550;2022-12-10T08:02:48;0.00;99.90
74513;DHT22;62992;52.052;8.550;2022-12-10T08:05:32;0.00;99.90
74513;DHT22;62992;52.052;8.550;2022-12-10T08:08:17;0.00;99.90
74513;DHT22;62992;52.052;8.550;2022-12-10T08:11:01;0.10;99.90
74513;DHT22;62992;52.052;8.550;2022-12-10T08:13:47;0.10;99.90
74513;DHT22;62992;52.052;8.550;2022-12-10T08:16:31;0.10;99.90
74513;DHT22;62992;52.052;8.550;2022-12-10T08:19:15;0.10;99.90
74513;DHT22;62992;52.052;8.550;2022-12-10T08:21:59;0.20;99.90
74513;DHT22;62992;52.052;8.550;2022-12-10T08:24:43;0.10;99.90
74513;DHT22;62992;52.052;8.550;2022-12-10T08:27:27;0.10;99.90
74513;DHT22;62992;52.052;8.550;2022-12-10T08:30:12;0.10;99.90
74513;DHT22;62992;52.052;8.550;2022-12-10T08:32:56;0.20;99.90
74513;DHT22;62992;52.052;8.550;2022-12-10T08:35:41;0.20;99.90
74513;DHT22;62992;52.052;8.550;2022-12-10T08:38:26;0.20;99.90
74513;DHT22;62992;52.052;8.550;2022-12-10T08:41:21;0.20;99.90
74513;DHT22;62992;52.052;8.550;2022-12-10T08:44:05;0.20;99.90
74513;DHT22;62992;52.052;8.550;2022-12-10T08:46:49;0.20;99.90
74513;DHT22;62992;52.052;8.550;2022-12-10T08:49:33;0.20;99.90
74513;DHT22;62992;52.052;8.550;2022-12-10T08:52:18;0.20;99.90
74513;DHT22;62992;52.052;8.550;2022-12-10T08:55:02;0.20;99.90
74513;DHT22;62992;52.052;8.550;2022-12-10T08:57:46;0.20;99.90
74513;DHT22;62992;52.052;8.550;2022-12-10T09:00:30;0.20;99.90
74513;DHT22;62992;52.052;8.550;2022-12-10T09:03:14;0.30;99.90
74513;DHT22;62992;52.052;8.550;2022-12-10T09:06:06;0.30;99.90
74513;DHT22;62992;52.052;8.550;2022-12-10T09:08:50;0.30;99.90
74513;DHT22;62992;52.052;8.550;2022-12-10T09:11:35;0.40;99.90
74513;DHT22;62992;52.052;8.550;2022-12-10T09:14:19;0.40;99.90
74513;DHT22;62992;52.052;8.550;2022-12-10T09:17:04;0.40;99.90
74513;DHT22;62992;52.052;8.550;2022-12-10T09:19:48;0.30;99.90
74513;DHT22;62992;52.052;8.550;2022-12-10T09:22:33;0.30;99.90
74513;DHT22;62992;52.052;8.550;2022-12-10T09:25:20;0.40;99.90
74513;DHT22;62992;52.052;8.550;2022-12-10T09:28:05;0.40;99.90
74513;DHT22;62992;52.052;8.550;2022-12-10T09:31:00;0.50;99.90
74513;DHT22;62992;52.052;8.550;2022-12-10T09:33:45;0.40;99.90
74513;DHT22;62992;52.052;8.550;2022-12-10T09:36:30;0.40;99.90
74513;DHT22;62992;52.052;8.550;2022-12-10T09:39:14;0.40;99.90
74513;DHT22;62992;52.052;8.550;2022-12-10T09:42:22;0.40;99.90
74513;DHT22;62992;52.052;8.550;2022-12-10T09:45:26;0.40;99.90
74513;DHT22;62992;52.052;8.550;2022-12-10T09:48:30;0.50;99.90
74513;DHT22;62992;52.052;8.550;2022-12-10T09:51:23;0.50;99.90
74513;DHT22;62992;52.052;8.550;2022-12-10T09:57:03;0.60;99.90
74513;DHT22;62992;52.052;8.550;2022-12-10T09:59:51;0.60;99.90
74513;DHT22;62992;52.052;8.550;2022-12-10T10:02:35;0.60;99.90
74513;DHT22;62992;52.052;8.550;2022-12-10T10:05:26;0.60;99.90
74513;DHT22;62992;52.052;8.550;2022-12-10T10:08:40;0.70;99.90
74513;DHT22;62992;52.052;8.550;2022-12-10T10:11:29;0.60;99.90
74513;DHT22;62992;52.052;8.550;2022-12-10T10:14:25;0.70;99.90
74513;DHT22;62992;52.052;8.550;2022-12-10T10:17:20;0.70;99.90
74513;DHT22;62992;52.052;8.550;2022-12-10T10:20:06;0.70;99.90
74513;DHT22;62992;52.052;8.550;2022-12-10T10:22:50;0.70;99.90
74513;DHT22;62992;52.052;8.550;2022-12-10T10:25:35;0.70;99.90
74513;DHT22;62992;52.052;8.550;2022-12-10T10:28:21;0.80;99.90
74513;DHT22;62992;52.052;8.550;2022-12-10T10:31:18;0.70;99.90
74513;DHT22;62992;52.052;8.550;2022-12-10T10:34:06;0.80;99.90
74513;DHT22;62992;52.052;8.550;2022-12-10T10:36:56;0.80;99.90
74513;DHT22;62992;52.052;8.550;2022-12-10T10:39:47;0.80;99.90
74513;DHT22;62992;52.052;8.550;2022-12-10T10:42:40;0.90;99.90
74513;DHT22;62992;52.052;8.550;2022-12-10T10:48:24;0.90;99.90
74513;DHT22;62992;52.052;8.550;2022-12-10T10:53:56;0.90;99.90
74513;DHT22;62992;52.052;8.550;2022-12-10T10:56:42;1.00;99.90
74513;DHT22;62992;52.052;8.550;2022-12-10T10:59:32;1.00;99.90
74513;DHT22;62992;52.052;8.550;2022-12-10T11:02:38;1.00;99.90
74513;DHT22;62992;52.052;8.550;2022-12-10T11:05:26;1.10;99.90
74513;DHT22;62992;52.052;8.550;2022-12-10T11:08:17;1.00;99.90
74513;DHT22;62992;52.052;8.550;2022-12-10T11:11:04;1.00;99.90
74513;DHT22;62992;52.052;8.550;2022-12-10T11:13:48;1.00;99.90
74513;DHT22;62992;52.052;8.550;2022-12-10T11:16:33;1.00;99.90
74513;DHT22;62992;52.052;8.550;2022-12-10T11:19:22;1.00;99.90
74513;DHT22;62992;52.052;8.550;2022-12-10T11:22:20;1.10;99.90
74513;DHT22;62992;52.052;8.550;2022-12-10T11:25:10;1.00;99.90
74513;DHT22;62992;52.052;8.550;2022-12-10T11:49:35;1.40;99.90
74513;DHT22;62992;52.052;8.550;2022-12-10T11:55:55;1.40;99.90
74513;DHT22;62992;52.052;8.550;2022-12-10T11:59:04;1.40;99.90
74513;DHT22;62992;52.052;8.550;2022-12-10T12:10:38;1.50;99.90
74513;DHT22;62992;52.052;8.550;2022-12-10T12:13:28;1.50;99.90
74513;DHT22;62992;52.052;8.550;2022-12-10T12:16:21;1.40;99.90
74513;DHT22;62992;52.052;8.550;2022-12-10T12:19:14;1.40;99.90
74513;DHT22;62992;52.052;8.550;2022-12-10T12:22:06;1.30;99.90
74513;DHT22;62992;52.052;8.550;2022-12-10T12:24:55;1.40;99.90
74513;DHT22;62992;52.052;8.550;2022-12-10T12:27:54;1.40;99.90
74513;DHT22;62992;52.052;8.550;2022-12-10T12:30:41;1.30;99.90
74513;DHT22;62992;52.052;8.550;2022-12-10T12:33:35;1.30;99.90
74513;DHT22;62992;52.052;8.550;2022-12-10T12:36:24;1.30;99.90
74513;DHT22;62992;52.052;8.550;2022-12-10T12:39:35;1.30;99.90
74513;DHT22;62992;52.052;8.550;2022-12-10T12:42:53;1.30;99.90
74513;DHT22;62992;52.052;8.550;2022-12-10T12:45:41;1.20;99.90
74513;DHT22;62992;52.052;8.550;2022-12-10T12:48:34;1.20;99.90
74513;DHT22;62992;52.052;8.550;2022-12-10T12:51:29;1.20;99.90
74513;DHT22;62992;52.052;8.550;2022-12-10T12:54:16;1.20;99.90
74513;DHT22;62992;52.052;8.550;2022-12-10T12:57:07;1.10;99.90
74513;DHT22;62992;52.052;8.550;2022-12-10T12:59:59;1.10;99.90
74513;DHT22;62992;52.052;8.550;2022-12-10T13:03:20;1.10;99.90
74513;DHT22;62992;52.052;8.550;2022-12-10T13:06:29;1.20;99.90
74513;DHT22;62992;52.052;8.550;2022-12-10T13:09:23;1.10;99.90
74513;DHT22;62992;52.052;8.550;2022-12-10T13:12:25;1.10;99.90
74513;DHT22;62992;52.052;8.550;2022-12-10T13:24:10;1.00;99.90
74513;DHT22;62992;52.052;8.550;2022-12-10T13:33:19;1.00;99.90
74513;DHT22;62992;52.052;8.550;2022-12-10T13:36:04;1.00;99.90
74513;DHT22;62992;52.052;8.550;2022-12-10T13:39:22;1.00;99.90
74513;DHT22;62992;52.052;8.550;2022-12-10T13:48:30;1.00;99.90
74513;DHT22;62992;52.052;8.550;2022-12-10T13:57:56;1.00;99.90
74513;DHT22;62992;52.052;8.550;2022-12-10T14:01:12;1.00;99.90
74513;DHT22;62992;52.052;8.550;2022-12-10T14:07:16;0.90;99.90
74513;DHT22;62992;52.052;8.550;2022-12-10T14:10:01;0.90;99.90
74513;DHT22;62992;52.052;8.550;2022-12-10T14:12:46;0.90;99.90
74513;DHT22;62992;52.052;8.550;2022-12-10T14:15:32;0.90;99.90
74513;DHT22;62992;52.052;8.550;2022-12-10T14:18:18;0.90;99.90
74513;DHT22;62992;52.052;8.550;2022-12-10T14:21:05;0.90;99.90
74513;DHT22;62992;52.052;8.550;2022-12-10T14:23:52;0.90;99.90
74513;DHT22;62992;52.052;8.550;2022-12-10T14:26:36;0.90;99.90
74513;DHT22;62992;52.052;8.550;2022-12-10T14:29:21;0.90;99.90
74513;DHT22;62992;52.052;8.550;2022-12-10T14:32:05;0.90;99.90
74513;DHT22;62992;52.052;8.550;2022-12-10T14:34:59;0.90;99.90
74513;DHT22;62992;52.052;8.550;2022-12-10T14:37:46;1.00;99.90
74513;DHT22;62992;52.052;8.550;2022-12-10T14:43:24;0.90;99.90
74513;DHT22;62992;52.052;8.550;2022-12-10T14:46:27;0.90;99.90
74513;DHT22;62992;52.052;8.550;2022-12-10T14:49:23;0.80;99.90
74513;DHT22;62992;52.052;8.550;2022-12-10T14:52:16;0.80;99.90
74513;DHT22;62992;52.052;8.550;2022-12-10T14:55:02;0.80;99.90
74513;DHT22;62992;52.052;8.550;2022-12-10T14:57:56;0.90;99.90
74513;DHT22;62992;52.052;8.550;2022-12-10T15:00:43;0.90;99.90
74513;DHT22;62992;52.052;8.550;2022-12-10T15:03:31;0.90;99.90
74513;DHT22;62992;52.052;8.550;2022-12-10T15:06:17;0.80;99.90
74513;DHT22;62992;52.052;8.550;2022-12-10T15:09:03;0.80;99.90
74513;DHT22;62992;52.052;8.550;2022-12-10T15:11:59;0.80;99.90
74513;DHT22;62992;52.052;8.550;2022-12-10T15:14:43;0.80;99.90
74513;DHT22;62992;52.052;8.550;2022-12-10T15:17:43;0.90;99.90
74513;DHT22;62992;52.052;8.550;2022-12-10T15:20:31;0.80;99.90
74513;DHT22;62992;52.052;8.550;2022-12-10T15:26:33;0.90;99.90
74513;DHT22;62992;52.052;8.550;2022-12-10T15:29:30;0.90;99.90
74513;DHT22;62992;52.052;8.550;2022-12-10T15:32:25;0.80;99.90
74513;DHT22;62992;52.052;8.550;2022-12-10T15:35:12;0.80;99.90
74513;DHT22;62992;52.052;8.550;2022-12-10T15:37:57;0.90;99.90
74513;DHT22;62992;52.052;8.550;2022-12-10T15:40:43;0.80;99.90
74513;DHT22;62992;52.052;8.550;2022-12-10T15:43:29;0.80;99.90
74513;DHT22;62992;52.052;8.550;2022-12-10T15:46:17;0.80;99.90
74513;DHT22;62992;52.052;8.550;2022-12-10T15:49:02;0.80;99.90
74513;DHT22;62992;52.052;8.550;2022-12-10T15:51:46;0.80;99.90
74513;DHT22;62992;52.052;8.550;2022-12-10T15:54:38;0.80;99.90
74513;DHT22;62992;52.052;8.550;2022-12-10T15:57:32;0.80;99.90
74513;DHT22;62992;52.052;8.550;2022-12-10T16:00:25;0.80;99.90
74513;DHT22;62992;52.052;8.550;2022-12-10T16:03:12;0.80;99.90
74513;DHT22;62992;52.052;8.550;2022-12-10T16:05:57;0.70;99.90
74513;DHT22;62992;52.052;8.550;2022-12-10T16:08:42;0.80;99.90
74513;DHT22;62992;52.052;8.550;2022-12-10T16:11:26;0.90;99.90
74513;DHT22;62992;52.052;8.550;2022-12-10T16:14:10;0.80;99.90
74513;DHT22;62992;52.052;8.550;2022-12-10T16:16:56;0.80;99.90
74513;DHT22;62992;52.052;8.550;2022-12-10T16:19:41;0.80;99.90
74513;DHT22;62992;52.052;8.550;2022-12-10T16:22:25;0.90;99.90
74513;DHT22;62992;52.052;8.550;2022-12-10T16:25:10;0.80;99.90
74513;DHT22;62992;52.052;8.550;2022-12-10T16:27:55;0.80;99.90
74513;DHT22;62992;52.052;8.550;2022-12-10T16:30:50;0.80;99.90
74513;DHT22;62992;52.052;8.550;2022-12-10T16:33:34;0.90;99.90
74513;DHT22;62992;52.052;8.550;2022-12-10T16:36:18;0.80;99.90
74513;DHT22;62992;52.052;8.550;2022-12-10T16:39:03;0.80;99.90
74513;DHT22;62992;52.052;8.550;2022-12-10T16:41:52;0.80;99.90
74513;DHT22;62992;52.052;8.550;2022-12-10T16:44:37;0.80;99.90
74513;DHT22;62992;52.052;8.550;2022-12-10T16:47:21;0.80;99.90
74513;DHT22;62992;52.052;8.550;2022-12-10T16:50:05;0.70;99.90
74513;DHT22;62992;52.052;8.550;2022-12-10T16:52:50;0.80;99.90
74513;DHT22;62992;52.052;8.550;2022-12-10T16:55:35;0.80;99.90
74513;DHT22;62992;52.052;8.550;2022-12-10T16:58:19;0.80;99.90
74513;DHT22;62992;52.052;8.550;2022-12-10T17:01:17;0.80;99.90
74513;DHT22;62992;52.052;8.550;2022-12-10T17:04:01;0.80;99.90
74513;DHT22;62992;52.052;8.550;2022-12-10T17:06:47;0.80;99.90
74513;DHT22;62992;52.052;8.550;2022-12-10T17:09:32;0.80;99.90
74513;DHT22;62992;52.052;8.550;2022-12-10T17:12:16;0.80;99.90
74513;DHT22;62992;52.052;8.550;2022-12-10T17:15:00;0.80;99.90
74513;DHT22;62992;52.052;8.550;2022-12-10T17:17:46;0.80;99.90
74513;DHT22;62992;52.052;8.550;2022-12-10T17:20:31;0.80;99.90
74513;DHT22;62992;52.052;8.550;2022-12-10T17:23:15;0.80;99.90
74513;DHT22;62992;52.052;8.550;2022-12-10T17:26:00;0.80;99.90
74513;DHT22;62992;52.052;8.550;2022-12-10T17:28:45;0.70;99.90
74513;DHT22;62992;52.052;8.550;2022-12-10T17:31:29;0.70;99.90
74513;DHT22;62992;52.052;8.550;2022-12-10T17:34:14;0.70;99.90
74513;DHT22;62992;52.052;8.550;2022-12-10T17:36:59;0.70;99.90
74513;DHT22;62992;52.052;8.550;2022-12-10T17:39:43;0.80;99.90
74513;DHT22;62992;52.052;8.550;2022-12-10T17:42:28;0.80;99.90
74513;DHT22;62992;52.052;8.550;2022-12-10T17:45:14;0.80;99.90
74513;DHT22;62992;52.052;8.550;2022-12-10T17:47:58;0.80;99.90
74513;DHT22;62992;52.052;8.550;2022-12-10T17:50:43;0.80;99.90
74513;DHT22;62992;52.052;8.550;2022-12-10T17:53:28;0.80;99.90
74513;DHT22;62992;52.052;8.550;2022-12-10T17:56:15;0.80;99.90
74513;DHT22;62992;52.052;8.550;2022-12-10T17:58:59;0.80;99.90
74513;DHT22;62992;52.052;8.550;2022-12-10T18:01:43;0.80;99.90
74513;DHT22;62992;52.052;8.550;2022-12-10T18:04:28;0.80;99.90
74513;DHT22;62992;52.052;8.550;2022-12-10T18:07:14;0.80;99.90
74513;DHT22;62992;52.052;8.550;2022-12-10T18:09:58;0.70;99.90
74513;DHT22;62992;52.052;8.550;2022-12-10T18:12:43;0.80;99.90
74513;DHT22;62992;52.052;8.550;2022-12-10T18:15:29;0.80;99.90
74513;DHT22;62992;52.052;8.550;2022-12-10T18:18:13;0.80;99.90
74513;DHT22;62992;52.052;8.550;2022-12-10T18:20:57;0.80;99.90
74513;DHT22;62992;52.052;8.550;2022-12-10T18:23:41;0.80;99.90
74513;DHT22;62992;52.052;8.550;2022-12-10T18:26:26;0.80;99.90
74513;DHT22;62992;52.052;8.550;2022-12-10T18:29:11;0.70;99.90
74513;DHT22;62992;52.052;8.550;2022-12-10T18:31:57;0.70;99.90
74513;DHT22;62992;52.052;8.550;2022-12-10T18:34:44;0.70;99.90
74513;DHT22;62992;52.052;8.550;2022-12-10T18:37:28;0.70;99.90
74513;DHT22;62992;52.052;8.550;2022-12-10T18:40:19;0.70;99.90
74513;DHT22;62992;52.052;8.550;2022-12-10T18:43:03;0.70;99.90
74513;DHT22;62992;52.052;8.550;2022-12-10T18:45:47;0.70;99.90
74513;DHT22;62992;52.052;8.550;2022-12-10T18:48:31;0.70;99.90
74513;DHT22;62992;52.052;8.550;2022-12-10T18:51:16;0.70;99.90
74513;DHT22;62992;52.052;8.550;2022-12-10T18:54:01;0.70;99.90
74513;DHT22;62992;52.052;8.550;2022-12-10T18:56:45;0.70;99.90
74513;DHT22;62992;52.052;8.550;2022-12-10T18:59:30;0.70;99.90
74513;DHT22;62992;52.052;8.550;2022-12-10T19:02:14;0.70;99.90
74513;DHT22;62992;52.052;8.550;2022-12-10T19:04:58;0.70;99.90
74513;DHT22;62992;52.052;8.550;2022-12-10T19:07:41;0.70;99.90
74513;DHT22;62992;52.052;8.550;2022-12-10T19:10:25;0.70;99.90
74513;DHT22;62992;52.052;8.550;2022-12-10T19:13:10;0.70;99.90
74513;DHT22;62992;52.052;8.550;2022-12-10T19:15:54;0.70;99.90